createdAt,value
2018-03-26T00:00:23.942Z,878.30
2018-03-26T00:01:23.930Z,878.28
2018-03-26T00:02:23.918Z,878.27
2018-03-26T00:03:23.905Z,878.26
2018-03-26T00:04:23.892Z,878.27
2018-03-26T00:05:23.884Z,878.26
2018-03-26T00:06:23.870Z,878.29
2018-03-26T00:07:23.856Z,878.30
2018-03-26T00:08:23.844Z,878.27
2018-03-26T00:09:23.835Z,878.30
2018-03-26T00:10:23.815Z,878.31
2018-03-26T00:11:23.804Z,878.29
2018-03-26T00:12:23.792Z,878.31
2018-03-26T00:13:23.780Z,878.31
2018-03-26T00:14:23.769Z,878.33
2018-03-26T00:15:23.755Z,878.29
2018-03-26T00:16:23.742Z,878.28
2018-03-26T00:17:23.728Z,878.30
2018-03-26T00:18:23.715Z,878.30
2018-03-26T00:19:23.705Z,878.30
2018-03-26T00:20:23.690Z,878.28
2018-03-26T00:21:23.672Z,878.25
2018-03-26T00:22:23.670Z,878.26
2018-03-26T00:23:23.656Z,878.26
2018-03-26T00:24:23.643Z,878.25
2018-03-26T00:25:23.631Z,878.26
2018-03-26T00:26:23.611Z,878.33
2018-03-26T00:27:23.600Z,878.33
2018-03-26T00:28:23.588Z,878.31
2018-03-26T00:29:23.576Z,878.32
2018-03-26T00:30:23.562Z,878.31
2018-03-26T00:31:23.548Z,878.33
2018-03-26T00:32:23.539Z,878.28
2018-03-26T00:33:23.526Z,878.31
2018-03-26T00:34:23.508Z,878.31
2018-03-26T00:35:23.504Z,878.31
2018-03-26T00:36:23.484Z,878.29
2018-03-26T00:37:23.472Z,878.28
2018-03-26T00:38:23.470Z,878.28
2018-03-26T00:39:23.462Z,878.27
2018-03-26T00:40:23.436Z,878.26
2018-03-26T00:41:23.421Z,878.27
2018-03-26T00:42:23.409Z,878.23
2018-03-26T00:43:23.403Z,878.24
2018-03-26T00:44:23.389Z,878.24
2018-03-26T00:45:23.374Z,878.21
2018-03-26T00:46:23.355Z,878.21
2018-03-26T00:47:23.348Z,878.22
2018-03-26T00:48:23.336Z,878.23
2018-03-26T00:49:23.327Z,878.25
2018-03-26T00:50:23.303Z,878.23
2018-03-26T00:51:23.291Z,878.23
2018-03-26T00:52:23.332Z,878.23
2018-03-26T00:53:23.271Z,878.23
2018-03-26T00:54:23.254Z,878.23
2018-03-26T00:55:23.241Z,878.19
2018-03-26T00:56:23.231Z,878.21
2018-03-26T00:57:23.217Z,878.22
2018-03-26T00:58:23.204Z,878.19
2018-03-26T00:59:23.190Z,878.19
2018-03-26T01:00:23.177Z,878.22
2018-03-26T01:01:23.162Z,878.20
2018-03-26T01:02:23.156Z,878.20
2018-03-26T01:03:23.138Z,878.21
2018-03-26T01:04:23.124Z,878.21
2018-03-26T01:05:23.116Z,878.15
2018-03-26T01:06:23.100Z,878.19
2018-03-26T01:07:23.085Z,878.21
2018-03-26T01:08:23.075Z,878.21
2018-03-26T01:09:23.065Z,878.19
2018-03-26T01:10:23.045Z,878.21
2018-03-26T01:11:23.039Z,878.23
2018-03-26T01:12:23.025Z,878.22
2018-03-26T01:13:23.011Z,878.23
2018-03-26T01:14:22.998Z,878.19
2018-03-26T01:15:22.987Z,878.20
2018-03-26T01:16:22.969Z,878.22
2018-03-26T01:17:22.956Z,878.23
2018-03-26T01:18:22.940Z,878.22
2018-03-26T01:19:22.932Z,878.21
2018-03-26T01:20:22.916Z,878.23
2018-03-26T01:21:22.906Z,878.21
2018-03-26T01:22:22.895Z,878.22
2018-03-26T01:23:22.881Z,878.22
2018-03-26T01:24:22.867Z,878.18
2018-03-26T01:25:22.853Z,878.19
2018-03-26T01:26:22.841Z,878.19
2018-03-26T01:27:22.833Z,878.21
2018-03-26T01:28:22.817Z,878.17
2018-03-26T01:29:22.805Z,878.16
2018-03-26T01:30:22.791Z,878.13
2018-03-26T01:31:22.772Z,878.19
2018-03-26T01:32:22.768Z,878.15
2018-03-26T01:33:22.758Z,878.14
2018-03-26T01:34:22.740Z,878.18
2018-03-26T01:35:22.727Z,878.17
2018-03-26T01:36:22.715Z,878.15
2018-03-26T01:37:22.699Z,878.16
2018-03-26T01:38:22.687Z,878.16
2018-03-26T01:39:22.677Z,878.16
2018-03-26T01:40:22.658Z,878.17
2018-03-26T01:41:22.664Z,878.15
2018-03-26T01:42:22.631Z,878.17
2018-03-26T01:43:22.623Z,878.15
2018-03-26T01:44:22.605Z,878.13
2018-03-26T01:45:22.597Z,878.14
2018-03-26T01:46:22.576Z,878.12
2018-03-26T01:47:22.573Z,878.16
2018-03-26T01:48:22.559Z,878.18
2018-03-26T01:49:22.543Z,878.17
2018-03-26T01:50:22.533Z,878.18
2018-03-26T01:51:22.514Z,878.18
2018-03-26T01:52:22.514Z,878.21
2018-03-26T01:53:22.497Z,878.21
2018-03-26T01:54:22.482Z,878.22
2018-03-26T01:55:22.462Z,878.21
2018-03-26T01:56:22.452Z,878.22
2018-03-26T01:57:22.440Z,878.18
2018-03-26T01:58:22.428Z,878.22
2018-03-26T01:59:22.413Z,878.23
2018-03-26T02:00:22.400Z,878.18
2018-03-26T02:01:22.389Z,878.20
2018-03-26T02:02:22.374Z,878.21
2018-03-26T02:03:22.363Z,878.20
2018-03-26T02:04:22.349Z,878.21
2018-03-26T02:05:22.335Z,878.17
2018-03-26T02:06:22.321Z,878.20
2018-03-26T02:07:22.308Z,878.18
2018-03-26T02:08:22.297Z,878.22
2018-03-26T02:09:22.287Z,878.24
2018-03-26T02:10:22.268Z,878.24
2018-03-26T02:11:22.263Z,878.23
2018-03-26T02:12:22.247Z,878.25
2018-03-26T02:13:22.231Z,878.26
2018-03-26T02:14:22.222Z,878.26
2018-03-26T02:15:22.207Z,878.27
2018-03-26T02:16:22.193Z,878.22
2018-03-26T02:17:22.183Z,878.27
2018-03-26T02:18:22.171Z,878.26
2018-03-26T02:19:22.156Z,878.28
2018-03-26T02:20:22.150Z,878.28
2018-03-26T02:21:22.131Z,878.27
2018-03-26T02:22:22.112Z,878.29
2018-03-26T02:23:22.102Z,878.29
2018-03-26T02:24:22.087Z,878.29
2018-03-26T02:25:22.075Z,878.33
2018-03-26T02:26:22.065Z,878.29
2018-03-26T02:27:22.050Z,878.28
2018-03-26T02:28:22.037Z,878.30
2018-03-26T02:29:22.027Z,878.31
2018-03-26T02:30:22.010Z,878.33
2018-03-26T02:31:21.999Z,878.34
2018-03-26T02:32:21.987Z,878.34
2018-03-26T02:33:21.973Z,878.33
2018-03-26T02:34:21.962Z,878.34
2018-03-26T02:35:21.946Z,878.37
2018-03-26T02:36:21.939Z,878.35
2018-03-26T02:37:21.918Z,878.40
2018-03-26T02:38:21.912Z,878.37
2018-03-26T02:39:21.892Z,878.40
2018-03-26T02:40:21.885Z,878.40
2018-03-26T02:41:21.870Z,878.40
2018-03-26T02:42:21.856Z,878.43
2018-03-26T02:43:21.838Z,878.43
2018-03-26T02:44:21.829Z,878.41
2018-03-26T02:45:21.819Z,878.42
2018-03-26T02:46:21.803Z,878.41
2018-03-26T02:47:21.791Z,878.44
2018-03-26T02:48:21.776Z,878.43
2018-03-26T02:49:21.760Z,878.42
2018-03-26T02:50:21.751Z,878.44
2018-03-26T02:51:21.741Z,878.37
2018-03-26T02:52:21.725Z,878.40
2018-03-26T02:53:21.716Z,878.41
2018-03-26T02:54:21.697Z,878.41
2018-03-26T02:55:21.688Z,878.39
2018-03-26T02:56:21.670Z,878.39
2018-03-26T02:57:21.660Z,878.40
2018-03-26T02:58:21.646Z,878.42
2018-03-26T02:59:21.634Z,878.38
2018-03-26T03:00:21.615Z,878.40
2018-03-26T03:01:21.607Z,878.39
2018-03-26T03:02:21.594Z,878.41
2018-03-26T03:03:21.581Z,878.42
2018-03-26T03:04:21.567Z,878.45
2018-03-26T03:05:21.554Z,878.45
2018-03-26T03:06:21.542Z,878.45
2018-03-26T03:07:21.524Z,878.48
2018-03-26T03:08:21.515Z,878.43
2018-03-26T03:09:21.499Z,878.49
2018-03-26T03:10:21.486Z,878.49
2018-03-26T03:11:21.471Z,878.44
2018-03-26T03:12:21.460Z,878.41
2018-03-26T03:13:21.446Z,878.48
2018-03-26T03:14:21.428Z,878.49
2018-03-26T03:15:21.430Z,878.50
2018-03-26T03:16:21.406Z,878.49
2018-03-26T03:17:21.397Z,878.48
2018-03-26T03:18:21.379Z,878.45
2018-03-26T03:19:21.370Z,878.44
2018-03-26T03:20:21.359Z,878.50
2018-03-26T03:21:21.344Z,878.52
2018-03-26T03:22:21.329Z,878.53
2018-03-26T03:23:21.315Z,878.50
2018-03-26T03:24:21.301Z,878.55
2018-03-26T03:25:21.287Z,878.51
2018-03-26T03:26:21.277Z,878.54
2018-03-26T03:27:21.265Z,878.55
2018-03-26T03:28:21.245Z,878.55
2018-03-26T03:29:21.235Z,878.55
2018-03-26T03:30:21.219Z,878.55
2018-03-26T03:31:21.208Z,878.59
2018-03-26T03:32:21.200Z,878.59
2018-03-26T03:33:21.186Z,878.54
2018-03-26T03:34:21.172Z,878.59
2018-03-26T03:35:21.156Z,878.57
2018-03-26T03:36:21.168Z,878.58
2018-03-26T03:37:21.131Z,878.54
2018-03-26T03:38:21.115Z,878.54
2018-03-26T03:39:21.100Z,878.56
2018-03-26T03:40:21.088Z,878.56
2018-03-26T03:41:21.086Z,878.55
2018-03-26T03:42:21.063Z,878.56
2018-03-26T03:43:21.050Z,878.55
2018-03-26T03:44:21.037Z,878.57
2018-03-26T03:45:21.022Z,878.59
2018-03-26T03:46:21.010Z,878.55
2018-03-26T03:47:20.995Z,878.57
2018-03-26T03:48:20.981Z,878.57
2018-03-26T03:49:20.975Z,878.56
2018-03-26T03:50:20.954Z,878.54
2018-03-26T03:51:20.943Z,878.55
2018-03-26T03:52:20.934Z,878.61
2018-03-26T03:53:20.923Z,878.59
2018-03-26T03:54:20.899Z,878.62
2018-03-26T03:55:20.891Z,878.61
2018-03-26T03:56:20.882Z,878.62
2018-03-26T03:57:20.866Z,878.59
2018-03-26T03:58:20.853Z,878.60
2018-03-26T03:59:20.839Z,878.68
2018-03-26T04:00:20.827Z,878.65
2018-03-26T04:01:20.812Z,878.63
2018-03-26T04:02:20.800Z,878.62
2018-03-26T04:03:20.780Z,878.63
2018-03-26T04:04:20.773Z,878.63
2018-03-26T04:05:20.756Z,878.63
2018-03-26T04:06:20.743Z,878.66
2018-03-26T04:07:20.731Z,878.68
2018-03-26T04:08:20.715Z,878.66
2018-03-26T04:09:20.703Z,878.65
2018-03-26T04:10:20.688Z,878.66
2018-03-26T04:11:20.680Z,878.69
2018-03-26T04:12:20.663Z,878.69
2018-03-26T04:13:20.654Z,878.69
2018-03-26T04:14:20.637Z,878.68
2018-03-26T04:15:20.623Z,878.68
2018-03-26T04:16:20.606Z,878.70
2018-03-26T04:17:20.593Z,878.68
2018-03-26T04:18:20.580Z,878.72
2018-03-26T04:19:20.578Z,878.77
2018-03-26T04:20:20.560Z,878.74
2018-03-26T04:21:20.545Z,878.73
2018-03-26T04:22:20.528Z,878.74
2018-03-26T04:23:20.517Z,878.71
2018-03-26T04:24:20.506Z,878.67
2018-03-26T04:25:20.494Z,878.71
2018-03-26T04:26:20.477Z,878.69
2018-03-26T04:27:20.466Z,878.72
2018-03-26T04:28:20.453Z,878.70
2018-03-26T04:29:20.433Z,878.65
2018-03-26T04:30:20.425Z,878.68
2018-03-26T04:31:20.409Z,878.73
2018-03-26T04:32:20.395Z,878.74
2018-03-26T04:33:20.387Z,878.78
2018-03-26T04:34:20.365Z,878.76
2018-03-26T04:35:20.358Z,878.76
2018-03-26T04:36:20.347Z,878.75
2018-03-26T04:37:20.329Z,878.75
2018-03-26T04:38:20.316Z,878.79
2018-03-26T04:39:20.299Z,878.77
2018-03-26T04:40:20.292Z,878.78
2018-03-26T04:41:20.275Z,878.80
2018-03-26T04:42:20.265Z,878.80
2018-03-26T04:43:20.250Z,878.77
2018-03-26T04:44:20.240Z,878.76
2018-03-26T04:45:20.220Z,878.80
2018-03-26T04:46:20.211Z,878.78
2018-03-26T04:47:20.201Z,878.84
2018-03-26T04:48:20.182Z,878.85
2018-03-26T04:49:20.169Z,878.91
2018-03-26T04:50:20.197Z,878.86
2018-03-26T04:51:20.136Z,878.89
2018-03-26T04:52:20.128Z,878.92
2018-03-26T04:53:20.116Z,878.92
2018-03-26T04:54:20.102Z,878.93
2018-03-26T04:55:20.090Z,878.94
2018-03-26T04:56:20.078Z,878.98
2018-03-26T04:57:20.066Z,879.00
2018-03-26T04:58:20.046Z,879.00
2018-03-26T04:59:20.037Z,879.05
2018-03-26T05:00:20.023Z,879.01
2018-03-26T05:01:20.008Z,878.99
2018-03-26T05:02:19.992Z,879.00
2018-03-26T05:03:19.984Z,879.00
2018-03-26T05:04:19.967Z,879.03
2018-03-26T05:05:19.956Z,878.99
2018-03-26T05:06:19.941Z,878.98
2018-03-26T05:07:19.930Z,879.03
2018-03-26T05:08:19.914Z,879.05
2018-03-26T05:09:19.899Z,879.04
2018-03-26T05:10:19.887Z,879.09
2018-03-26T05:11:19.875Z,879.06
2018-03-26T05:12:19.860Z,879.11
2018-03-26T05:13:19.846Z,879.10
2018-03-26T05:14:19.875Z,879.12
2018-03-26T05:15:19.820Z,879.06
2018-03-26T05:16:19.806Z,879.12
2018-03-26T05:17:19.795Z,879.11
2018-03-26T05:18:19.787Z,879.10
2018-03-26T05:19:19.762Z,879.17
2018-03-26T05:20:19.751Z,879.15
2018-03-26T05:21:19.740Z,879.13
2018-03-26T05:22:19.725Z,879.15
2018-03-26T05:23:19.716Z,879.15
2018-03-26T05:24:19.702Z,879.16
2018-03-26T05:25:19.686Z,879.17
2018-03-26T05:26:19.673Z,879.13
2018-03-26T05:27:19.664Z,879.21
2018-03-26T05:28:19.648Z,879.21
2018-03-26T05:29:19.627Z,879.24
2018-03-26T05:30:19.615Z,879.25
2018-03-26T05:31:19.601Z,879.27
2018-03-26T05:32:19.590Z,879.28
2018-03-26T05:33:19.581Z,879.29
2018-03-26T05:34:19.565Z,879.28
2018-03-26T05:35:19.550Z,879.25
2018-03-26T05:36:19.547Z,879.32
2018-03-26T05:37:19.523Z,879.28
2018-03-26T05:38:19.509Z,879.29
2018-03-26T05:39:19.501Z,879.30
2018-03-26T05:40:19.479Z,879.29
2018-03-26T05:41:19.470Z,879.36
2018-03-26T05:42:19.453Z,879.34
2018-03-26T05:43:19.447Z,879.35
2018-03-26T05:44:19.428Z,879.38
2018-03-26T05:45:19.420Z,879.40
2018-03-26T05:46:19.401Z,879.38
2018-03-26T05:47:19.387Z,879.43
2018-03-26T05:48:19.376Z,879.45
2018-03-26T05:49:19.363Z,879.48
2018-03-26T05:50:19.347Z,879.45
2018-03-26T05:51:19.334Z,879.47
2018-03-26T05:52:19.323Z,879.48
2018-03-26T05:53:19.313Z,879.50
2018-03-26T05:54:19.295Z,879.51
2018-03-26T05:55:19.282Z,879.54
2018-03-26T05:56:19.267Z,879.58
2018-03-26T05:57:19.256Z,879.57
2018-03-26T05:58:19.242Z,879.57
2018-03-26T05:59:19.238Z,879.60
2018-03-26T06:00:19.209Z,879.63
2018-03-26T06:01:19.204Z,879.63
2018-03-26T06:02:19.186Z,879.64
2018-03-26T06:03:19.168Z,879.60
2018-03-26T06:04:19.159Z,879.67
2018-03-26T06:05:19.145Z,879.64
2018-03-26T06:06:19.138Z,879.65
2018-03-26T06:07:19.117Z,879.67
2018-03-26T06:08:19.103Z,879.67
2018-03-26T06:09:19.098Z,879.68
2018-03-26T06:10:19.085Z,879.68
2018-03-26T06:11:19.065Z,879.68
2018-03-26T06:12:19.056Z,879.67
2018-03-26T06:13:19.040Z,879.70
2018-03-26T06:14:19.037Z,879.70
2018-03-26T06:15:19.016Z,879.71
2018-03-26T06:16:18.998Z,879.74
2018-03-26T06:17:18.987Z,879.76
2018-03-26T06:18:18.968Z,879.79
2018-03-26T06:19:18.957Z,879.81
2018-03-26T06:20:18.946Z,879.82
2018-03-26T06:21:18.928Z,879.81
2018-03-26T06:22:18.921Z,879.83
2018-03-26T06:23:18.901Z,879.83
2018-03-26T06:24:18.888Z,879.85
2018-03-26T06:25:18.875Z,879.85
2018-03-26T06:26:18.859Z,879.85
2018-03-26T06:27:18.852Z,879.86
2018-03-26T06:28:18.840Z,879.87
2018-03-26T06:29:18.826Z,879.87
2018-03-26T06:30:18.809Z,879.86
2018-03-26T06:31:18.794Z,879.87
2018-03-26T06:32:18.782Z,879.90
2018-03-26T06:33:18.770Z,879.91
2018-03-26T06:34:18.758Z,879.91
2018-03-26T06:35:18.750Z,879.96
2018-03-26T06:36:18.731Z,879.93
2018-03-26T06:37:18.711Z,879.95
2018-03-26T06:38:18.702Z,879.93
2018-03-26T06:39:18.689Z,879.96
2018-03-26T06:40:18.678Z,879.93
2018-03-26T06:41:18.660Z,879.95
2018-03-26T06:42:18.649Z,879.96
2018-03-26T06:43:18.637Z,879.97
2018-03-26T06:44:18.642Z,879.97
2018-03-26T06:45:18.607Z,879.98
2018-03-26T06:46:18.596Z,879.98
2018-03-26T06:47:18.584Z,880.05
2018-03-26T06:48:18.570Z,879.99
2018-03-26T06:49:18.551Z,880.00
2018-03-26T06:50:18.542Z,880.03
2018-03-26T06:51:18.529Z,880.06
2018-03-26T06:52:18.514Z,880.05
2018-03-26T06:53:18.496Z,880.05
2018-03-26T06:54:18.484Z,880.06
2018-03-26T06:55:18.475Z,880.03
2018-03-26T06:56:18.461Z,880.02
2018-03-26T06:57:18.448Z,880.03
2018-03-26T06:58:18.432Z,880.04
2018-03-26T06:59:18.415Z,880.05
2018-03-26T07:00:18.405Z,880.06
2018-03-26T07:01:18.393Z,880.04
2018-03-26T07:02:18.398Z,880.04
2018-03-26T07:03:18.365Z,880.05
2018-03-26T07:04:18.353Z,880.04
2018-03-26T07:05:18.335Z,880.06
2018-03-26T07:06:18.325Z,880.09
2018-03-26T07:07:18.307Z,880.07
2018-03-26T07:08:18.295Z,880.06
2018-03-26T07:09:18.286Z,880.10
2018-03-26T07:10:18.268Z,880.11
2018-03-26T07:11:18.254Z,880.11
2018-03-26T07:12:18.305Z,880.08
2018-03-26T07:13:18.227Z,880.10
2018-03-26T07:14:18.220Z,880.10
2018-03-26T07:15:18.203Z,880.09
2018-03-26T07:16:18.197Z,880.07
2018-03-26T07:17:18.177Z,880.12
2018-03-26T07:18:18.169Z,880.10
2018-03-26T07:19:18.145Z,880.12
2018-03-26T07:20:18.139Z,880.11
2018-03-26T07:21:18.123Z,880.17
2018-03-26T07:22:18.109Z,880.16
2018-03-26T07:23:18.096Z,880.17
2018-03-26T07:24:18.082Z,880.15
2018-03-26T07:25:18.074Z,880.17
2018-03-26T07:26:18.054Z,880.17
2018-03-26T07:27:18.041Z,880.18
2018-03-26T07:28:18.028Z,880.21
2018-03-26T07:29:18.015Z,880.22
2018-03-26T07:30:17.999Z,880.27
2018-03-26T07:31:17.990Z,880.27
2018-03-26T07:32:17.974Z,880.29
2018-03-26T07:33:17.961Z,880.28
2018-03-26T07:34:17.947Z,880.31
2018-03-26T07:35:17.934Z,880.33
2018-03-26T07:36:17.924Z,880.33
2018-03-26T07:37:17.915Z,880.33
2018-03-26T07:38:17.898Z,880.33
2018-03-26T07:39:17.879Z,880.36
2018-03-26T07:40:17.870Z,880.36
2018-03-26T07:41:17.859Z,880.35
2018-03-26T07:42:17.840Z,880.38
2018-03-26T07:43:17.825Z,880.41
2018-03-26T07:44:17.817Z,880.40
2018-03-26T07:45:17.807Z,880.42
2018-03-26T07:46:17.789Z,880.42
2018-03-26T07:47:17.772Z,880.45
2018-03-26T07:48:17.760Z,880.48
2018-03-26T07:49:17.746Z,880.45
2018-03-26T07:50:17.730Z,880.42
2018-03-26T07:51:17.718Z,880.43
2018-03-26T07:52:17.706Z,880.46
2018-03-26T07:53:17.699Z,880.50
2018-03-26T07:54:17.680Z,880.47
2018-03-26T07:55:17.668Z,880.48
2018-03-26T07:56:17.651Z,880.45
2018-03-26T07:57:17.638Z,880.47
2018-03-26T07:58:17.627Z,880.45
2018-03-26T07:59:17.611Z,880.49
2018-03-26T08:00:17.600Z,880.47
2018-03-26T08:01:17.584Z,880.48
2018-03-26T08:02:17.570Z,880.51
2018-03-26T08:03:17.559Z,880.49
2018-03-26T08:04:17.542Z,880.52
2018-03-26T08:05:17.531Z,880.52
2018-03-26T08:06:17.515Z,880.53
2018-03-26T08:07:17.505Z,880.53
2018-03-26T08:08:17.491Z,880.52
2018-03-26T08:09:17.473Z,880.55
2018-03-26T08:10:17.459Z,880.58
2018-03-26T08:11:17.451Z,880.61
2018-03-26T08:12:17.442Z,880.54
2018-03-26T08:13:17.420Z,880.51
2018-03-26T08:14:17.408Z,880.48
2018-03-26T08:15:17.394Z,880.51
2018-03-26T08:16:17.386Z,880.56
2018-03-26T08:17:17.370Z,880.55
2018-03-26T08:18:17.352Z,880.55
2018-03-26T08:19:17.341Z,880.60
2018-03-26T08:20:17.323Z,880.57
2018-03-26T08:21:17.314Z,880.60
2018-03-26T08:22:17.297Z,880.61
2018-03-26T08:23:17.287Z,880.62
2018-03-26T08:24:17.269Z,880.63
2018-03-26T08:25:17.260Z,880.61
2018-03-26T08:26:17.241Z,880.66
2018-03-26T08:27:17.227Z,880.66
2018-03-26T08:28:17.215Z,880.70
2018-03-26T08:29:17.202Z,880.68
2018-03-26T08:30:17.192Z,880.70
2018-03-26T08:31:17.175Z,880.71
2018-03-26T08:32:17.161Z,880.74
2018-03-26T08:33:17.147Z,880.73
2018-03-26T08:34:17.135Z,880.72
2018-03-26T08:35:17.124Z,880.76
2018-03-26T08:36:17.112Z,880.74
2018-03-26T08:37:17.095Z,880.75
2018-03-26T08:38:17.080Z,880.74
2018-03-26T08:39:17.066Z,880.79
2018-03-26T08:40:17.052Z,880.80
2018-03-26T08:41:17.041Z,880.76
2018-03-26T08:42:17.082Z,880.81
2018-03-26T08:43:17.010Z,880.84
2018-03-26T08:44:16.999Z,880.79
2018-03-26T08:45:16.986Z,880.78
2018-03-26T08:46:16.973Z,880.83
2018-03-26T08:47:16.960Z,880.83
2018-03-26T08:48:16.943Z,880.88
2018-03-26T08:49:16.935Z,880.87
2018-03-26T08:50:16.973Z,880.92
2018-03-26T08:51:16.908Z,880.90
2018-03-26T08:52:16.897Z,880.93
2018-03-26T08:53:16.878Z,880.95
2018-03-26T08:54:16.864Z,880.96
2018-03-26T08:55:16.846Z,880.93
2018-03-26T08:56:16.842Z,881.01
2018-03-26T08:57:16.826Z,880.97
2018-03-26T08:58:16.810Z,880.92
2018-03-26T08:59:16.849Z,881.00
2018-03-26T09:00:16.779Z,880.91
2018-03-26T09:01:16.767Z,880.96
2018-03-26T09:02:16.755Z,880.95
2018-03-26T09:03:16.742Z,880.92
2018-03-26T09:04:16.722Z,880.99
2018-03-26T09:05:16.713Z,880.97
2018-03-26T09:06:16.696Z,880.95
2018-03-26T09:07:16.683Z,880.96
2018-03-26T09:08:16.669Z,880.98
2018-03-26T09:09:16.659Z,880.99
2018-03-26T09:10:16.643Z,880.99
2018-03-26T09:11:16.629Z,881.00
2018-03-26T09:12:16.618Z,881.04
2018-03-26T09:13:16.606Z,881.02
2018-03-26T09:14:16.593Z,881.03
2018-03-26T09:15:16.581Z,881.06
2018-03-26T09:16:16.560Z,881.06
2018-03-26T09:17:16.549Z,881.03
2018-03-26T09:18:16.529Z,881.08
2018-03-26T09:19:16.522Z,881.12
2018-03-26T09:20:16.512Z,881.14
2018-03-26T09:21:16.500Z,881.13
2018-03-26T09:22:16.478Z,881.16
2018-03-26T09:23:16.470Z,881.18
2018-03-26T09:24:16.448Z,881.16
2018-03-26T09:25:16.436Z,881.18
2018-03-26T09:26:16.425Z,881.17
2018-03-26T09:27:16.410Z,881.14
2018-03-26T09:28:16.398Z,881.16
2018-03-26T09:29:16.381Z,881.17
2018-03-26T09:30:16.374Z,881.16
2018-03-26T09:31:16.359Z,881.12
2018-03-26T09:32:16.341Z,881.16
2018-03-26T09:33:16.328Z,881.14
2018-03-26T09:34:16.312Z,881.16
2018-03-26T09:35:16.298Z,881.20
2018-03-26T09:36:16.287Z,881.18
2018-03-26T09:37:16.273Z,881.22
2018-03-26T09:38:16.257Z,881.22
2018-03-26T09:39:16.244Z,881.22
2018-03-26T09:40:16.236Z,881.24
2018-03-26T09:41:16.222Z,881.25
2018-03-26T09:42:16.206Z,881.26
2018-03-26T09:43:16.185Z,881.26
2018-03-26T09:44:16.176Z,881.28
2018-03-26T09:45:16.162Z,881.32
2018-03-26T09:46:16.148Z,881.30
2018-03-26T09:47:16.137Z,881.32
2018-03-26T09:48:16.117Z,881.30
2018-03-26T09:49:16.105Z,881.28
2018-03-26T09:50:16.104Z,881.32
2018-03-26T09:51:16.078Z,881.31
2018-03-26T09:52:16.069Z,881.32
2018-03-26T09:53:16.084Z,881.32
2018-03-26T09:54:16.039Z,881.30
2018-03-26T09:55:16.027Z,881.32
2018-03-26T09:56:16.012Z,881.31
2018-03-26T09:57:15.998Z,881.34
2018-03-26T09:58:15.991Z,881.30
2018-03-26T09:59:15.972Z,881.31
2018-03-26T10:00:15.968Z,881.35
2018-03-26T10:01:15.947Z,881.34
2018-03-26T10:02:15.930Z,881.33
2018-03-26T10:03:15.920Z,881.33
2018-03-26T10:04:15.964Z,881.37
2018-03-26T10:05:15.890Z,881.38
2018-03-26T10:06:15.877Z,881.38
2018-03-26T10:07:15.864Z,881.39
2018-03-26T10:08:15.850Z,881.37
2018-03-26T10:09:15.834Z,881.37
2018-03-26T10:10:15.818Z,881.40
2018-03-26T10:11:15.805Z,881.40
2018-03-26T10:12:15.797Z,881.42
2018-03-26T10:13:15.779Z,881.40
2018-03-26T10:14:15.765Z,881.40
2018-03-26T10:15:15.750Z,881.43
2018-03-26T10:16:15.741Z,881.43
2018-03-26T10:17:15.725Z,881.44
2018-03-26T10:18:15.711Z,881.42
2018-03-26T10:19:15.698Z,881.45
2018-03-26T10:20:15.682Z,881.49
2018-03-26T10:21:15.674Z,881.47
2018-03-26T10:22:15.656Z,881.48
2018-03-26T10:23:15.646Z,881.44
2018-03-26T10:24:15.627Z,881.44
2018-03-26T10:25:15.661Z,881.45
2018-03-26T10:26:15.600Z,881.44
2018-03-26T10:27:15.588Z,881.45
2018-03-26T10:28:15.579Z,881.47
2018-03-26T10:29:15.559Z,881.46
2018-03-26T10:30:15.549Z,881.45
2018-03-26T10:31:15.539Z,881.43
2018-03-26T10:32:15.523Z,881.41
2018-03-26T10:33:15.560Z,881.44
2018-03-26T10:34:15.491Z,881.45
2018-03-26T10:35:15.480Z,881.43
2018-03-26T10:36:15.466Z,881.44
2018-03-26T10:37:15.452Z,881.44
2018-03-26T10:38:15.438Z,881.46
2018-03-26T10:39:15.424Z,881.50
2018-03-26T10:40:15.411Z,881.50
2018-03-26T10:41:15.398Z,881.52
2018-03-26T10:42:15.386Z,881.52
2018-03-26T10:43:15.368Z,881.51
2018-03-26T10:44:15.353Z,881.54
2018-03-26T10:45:15.342Z,881.52
2018-03-26T10:46:15.330Z,881.52
2018-03-26T10:47:15.317Z,881.50
2018-03-26T10:48:15.306Z,881.49
2018-03-26T10:49:15.288Z,881.50
2018-03-26T10:50:15.280Z,881.48
2018-03-26T10:51:15.263Z,881.50
2018-03-26T10:52:15.253Z,881.53
2018-03-26T10:53:15.235Z,881.50
2018-03-26T10:54:15.231Z,881.54
2018-03-26T10:55:15.212Z,881.54
2018-03-26T10:56:15.203Z,881.52
2018-03-26T10:57:15.189Z,881.55
2018-03-26T10:58:15.173Z,881.56
2018-03-26T10:59:15.160Z,881.56
2018-03-26T11:00:15.153Z,881.54
2018-03-26T11:01:15.139Z,881.58
2018-03-26T11:02:15.128Z,881.55
2018-03-26T11:03:15.110Z,881.57
2018-03-26T11:04:15.096Z,881.54
2018-03-26T11:05:15.085Z,881.51
2018-03-26T11:06:15.064Z,881.54
2018-03-26T11:07:15.059Z,881.54
2018-03-26T11:08:15.047Z,881.52
2018-03-26T11:09:15.038Z,881.50
2018-03-26T11:10:15.019Z,881.49
2018-03-26T11:11:15.008Z,881.49
2018-03-26T11:12:14.996Z,881.50
2018-03-26T11:13:14.982Z,881.49
2018-03-26T11:14:14.968Z,881.47
2018-03-26T11:15:14.957Z,881.46
2018-03-26T11:16:14.948Z,881.47
2018-03-26T11:17:14.932Z,881.49
2018-03-26T11:18:14.921Z,881.50
2018-03-26T11:19:14.905Z,881.49
2018-03-26T11:20:14.895Z,881.48
2018-03-26T11:21:14.888Z,881.54
2018-03-26T11:22:14.869Z,881.50
2018-03-26T11:23:14.854Z,881.51
2018-03-26T11:24:14.840Z,881.54
2018-03-26T11:25:14.828Z,881.53
2018-03-26T11:26:14.821Z,881.52
2018-03-26T11:27:14.810Z,881.52
2018-03-26T11:28:14.794Z,881.51
2018-03-26T11:29:14.784Z,881.53
2018-03-26T11:30:14.770Z,881.57
2018-03-26T11:31:14.759Z,881.53
2018-03-26T11:32:14.749Z,881.53
2018-03-26T11:33:14.735Z,881.56
2018-03-26T11:34:14.719Z,881.57
2018-03-26T11:35:14.703Z,881.59
2018-03-26T11:36:14.734Z,881.56
2018-03-26T11:37:14.684Z,881.57
2018-03-26T11:38:14.668Z,881.58
2018-03-26T11:39:14.657Z,881.53
2018-03-26T11:40:14.640Z,881.57
2018-03-26T11:41:14.639Z,881.58
2018-03-26T11:42:14.625Z,881.58
2018-03-26T11:43:14.612Z,881.61
2018-03-26T11:44:14.595Z,881.58
2018-03-26T11:45:14.585Z,881.60
2018-03-26T11:46:14.573Z,881.61
2018-03-26T11:47:14.560Z,881.61
2018-03-26T11:48:14.549Z,881.61
2018-03-26T11:49:14.538Z,881.61
2018-03-26T11:50:14.522Z,881.61
2018-03-26T11:51:14.512Z,881.57
2018-03-26T11:52:14.497Z,881.64
2018-03-26T11:53:14.487Z,881.62
2018-03-26T11:54:14.470Z,881.61
2018-03-26T11:55:14.471Z,881.62
2018-03-26T11:56:14.449Z,881.60
2018-03-26T11:57:14.439Z,881.60
2018-03-26T11:58:14.422Z,881.60
2018-03-26T11:59:14.416Z,881.63
2018-03-26T12:00:14.399Z,881.61
2018-03-26T12:01:14.388Z,881.61
2018-03-26T12:02:14.376Z,881.61
2018-03-26T12:03:14.360Z,881.63
2018-03-26T12:04:14.348Z,881.66
2018-03-26T12:05:14.340Z,881.64
2018-03-26T12:06:14.319Z,881.64
2018-03-26T12:07:14.310Z,881.62
2018-03-26T12:08:14.298Z,881.67
2018-03-26T12:09:14.284Z,881.64
2018-03-26T12:10:14.270Z,881.66
2018-03-26T12:11:14.257Z,881.66
2018-03-26T12:12:14.245Z,881.69
2018-03-26T12:13:14.243Z,881.71
2018-03-26T12:14:14.213Z,881.68
2018-03-26T12:15:14.210Z,881.71
2018-03-26T12:16:14.202Z,881.70
2018-03-26T12:17:14.184Z,881.73
2018-03-26T12:18:14.169Z,881.72
2018-03-26T12:19:14.161Z,881.72
2018-03-26T12:20:14.145Z,881.72
2018-03-26T12:21:14.129Z,881.70
2018-03-26T12:22:14.119Z,881.70
2018-03-26T12:23:14.108Z,881.74
2018-03-26T12:24:14.094Z,881.73
2018-03-26T12:25:14.078Z,881.74
2018-03-26T12:26:14.076Z,881.74
2018-03-26T12:27:14.063Z,881.75
2018-03-26T12:28:14.033Z,881.79